createdAt,value
2022-09-15T00:00:58.497Z,995.49
2022-09-15T00:01:58.930Z,995.46
2022-09-15T00:02:58.655Z,995.46
2022-09-15T00:03:58.012Z,995.48
2022-09-15T00:04:58.555Z,995.5
2022-09-15T00:05:57.829Z,995.46
2022-09-15T00:06:58.208Z,995.49
2022-09-15T00:07:58.359Z,995.47
2022-09-15T00:08:58.715Z,995.45
2022-09-15T00:09:58.095Z,995.45
2022-09-15T00:10:58.387Z,995.46
2022-09-15T00:11:58.646Z,995.48
2022-09-15T00:12:58.138Z,995.45
2022-09-15T00:13:58.110Z,995.48
2022-09-15T00:14:58.114Z,995.5
2022-09-15T00:15:58.116Z,995.51
2022-09-15T00:16:58.276Z,995.49
2022-09-15T00:17:58.129Z,995.45
2022-09-15T00:18:58.106Z,995.44
2022-09-15T00:19:58.113Z,995.43
2022-09-15T00:20:58.116Z,995.43
2022-09-15T00:21:58.107Z,995.45
2022-09-15T00:22:58.140Z,995.45
2022-09-15T00:23:58.112Z,995.43
2022-09-15T00:24:58.141Z,995.43
2022-09-15T00:25:58.116Z,995.44
2022-09-15T00:26:58.210Z,995.43
2022-09-15T00:27:58.134Z,995.44
2022-09-15T00:28:58.107Z,995.44
2022-09-15T00:29:58.114Z,995.43
2022-09-15T00:30:58.243Z,995.46
2022-09-15T00:31:58.096Z,995.46
2022-09-15T00:32:58.120Z,995.43
2022-09-15T00:33:58.159Z,995.44
2022-09-15T00:34:58.393Z,995.42
2022-09-15T00:35:58.422Z,995.4
2022-09-15T00:36:58.665Z,995.41
2022-09-15T00:37:58.395Z,995.4
2022-09-15T00:38:58.277Z,995.41
2022-09-15T00:39:59.522Z,995.4
2022-09-15T00:40:58.211Z,995.43
2022-09-15T00:41:58.455Z,995.42
2022-09-15T00:42:58.735Z,995.41
2022-09-15T00:43:58.322Z,995.43
2022-09-15T00:44:58.406Z,995.47
2022-09-15T00:45:58.981Z,995.46
2022-09-15T00:47:19.044Z,995.47
2022-09-15T00:47:58.987Z,995.47
2022-09-15T00:48:59.506Z,995.48
2022-09-15T00:50:00.679Z,995.5
2022-09-15T00:50:58.779Z,995.51
2022-09-15T00:51:58.342Z,995.52
2022-09-15T00:52:58.541Z,995.5
2022-09-15T00:53:58.808Z,995.51
2022-09-15T00:54:58.215Z,995.49
2022-09-15T00:55:58.471Z,995.51
2022-09-15T00:56:58.472Z,995.52
2022-09-15T00:57:58.700Z,995.5
2022-09-15T00:58:58.981Z,995.46
2022-09-15T00:59:58.534Z,995.48
2022-09-15T01:00:58.310Z,995.51
2022-09-15T01:01:58.562Z,995.5
2022-09-15T01:02:58.808Z,995.5
2022-09-15T01:03:58.486Z,995.5
2022-09-15T01:05:01.393Z,995.51
2022-09-15T01:05:58.410Z,995.48
2022-09-15T01:06:58.648Z,995.51
2022-09-15T01:07:58.273Z,995.49
2022-09-15T01:08:58.400Z,995.47
2022-09-15T01:09:58.523Z,995.49
2022-09-15T01:10:58.423Z,995.47
2022-09-15T01:11:58.288Z,995.48
2022-09-15T01:12:58.300Z,995.51
2022-09-15T01:13:58.507Z,995.51
2022-09-15T01:14:58.177Z,995.49
2022-09-15T01:15:58.184Z,995.45
2022-09-15T01:16:58.189Z,995.5
2022-09-15T01:17:58.110Z,995.52
2022-09-15T01:18:58.411Z,995.48
2022-09-15T01:19:58.123Z,995.45
2022-09-15T01:20:58.110Z,995.45
2022-09-15T01:22:01.473Z,995.45
2022-09-15T01:22:58.124Z,995.46
2022-09-15T01:23:58.107Z,995.46
2022-09-15T01:24:58.124Z,995.46
2022-09-15T01:25:58.105Z,995.47
2022-09-15T01:26:58.108Z,995.46
2022-09-15T01:27:58.116Z,995.46
2022-09-15T01:28:58.119Z,995.46
2022-09-15T01:29:58.120Z,995.49
2022-09-15T01:30:58.153Z,995.49
2022-09-15T01:31:58.151Z,995.46
2022-09-15T01:32:58.121Z,995.48
2022-09-15T01:33:58.113Z,995.48
2022-09-15T01:34:58.103Z,995.53
2022-09-15T01:35:58.133Z,995.5
2022-09-15T01:36:58.116Z,995.46
2022-09-15T01:37:58.119Z,995.5
2022-09-15T01:38:58.111Z,995.49
2022-09-15T01:39:58.152Z,995.49
2022-09-15T01:40:58.114Z,995.48
2022-09-15T01:41:58.137Z,995.47
2022-09-15T01:42:58.134Z,995.46
2022-09-15T01:43:58.127Z,995.45
2022-09-15T01:44:58.107Z,995.43
2022-09-15T01:45:58.179Z,995.41
2022-09-15T01:46:58.109Z,995.41
2022-09-15T01:47:58.113Z,995.39
2022-09-15T01:48:58.103Z,995.4
2022-09-15T01:49:58.117Z,995.4
2022-09-15T01:50:58.118Z,995.41
2022-09-15T01:51:58.120Z,995.42
2022-09-15T01:52:58.119Z,995.39
2022-09-15T01:53:58.115Z,995.4
2022-09-15T01:54:58.212Z,995.42
2022-09-15T01:55:58.106Z,995.37
2022-09-15T01:56:58.113Z,995.35
2022-09-15T01:57:58.100Z,995.37
2022-09-15T01:58:58.091Z,995.39
2022-09-15T01:59:58.098Z,995.37
2022-09-15T02:00:58.150Z,995.35
2022-09-15T02:01:58.121Z,995.36
2022-09-15T02:02:58.113Z,995.34
2022-09-15T02:03:58.111Z,995.36
2022-09-15T02:04:58.218Z,995.34
2022-09-15T02:05:58.097Z,995.34
2022-09-15T02:06:58.098Z,995.36
2022-09-15T02:07:58.107Z,995.38
2022-09-15T02:08:58.107Z,995.34
2022-09-15T02:09:58.100Z,995.37
2022-09-15T02:10:58.118Z,995.4
2022-09-15T02:11:58.101Z,995.41
2022-09-15T02:12:58.141Z,995.36
2022-09-15T02:13:58.153Z,995.38
2022-09-15T02:14:58.116Z,995.39
2022-09-15T02:15:58.176Z,995.42
2022-09-15T02:16:58.132Z,995.4
2022-09-15T02:17:58.112Z,995.45
2022-09-15T02:18:58.118Z,995.41
2022-09-15T02:19:58.104Z,995.45
2022-09-15T02:20:58.106Z,995.44
2022-09-15T02:21:58.119Z,995.47
2022-09-15T02:22:58.111Z,995.46
2022-09-15T02:23:58.086Z,995.51
2022-09-15T02:24:58.127Z,995.44
2022-09-15T02:25:58.140Z,995.43
2022-09-15T02:26:58.121Z,995.42
2022-09-15T02:27:58.135Z,995.39
2022-09-15T02:28:58.460Z,995.41
2022-09-15T02:29:58.187Z,995.44
2022-09-15T02:30:58.087Z,995.41
2022-09-15T02:31:58.318Z,995.41
2022-09-15T02:32:58.566Z,995.47
2022-09-15T02:33:58.109Z,995.44
2022-09-15T02:34:58.127Z,995.47
2022-09-15T02:35:58.387Z,995.52
2022-09-15T02:36:58.142Z,995.54
2022-09-15T02:37:58.108Z,995.55
2022-09-15T02:38:58.307Z,995.55
2022-09-15T02:39:58.634Z,995.56
2022-09-15T02:40:58.192Z,995.58
2022-09-15T02:41:58.114Z,995.61
2022-09-15T02:42:58.404Z,995.59
2022-09-15T02:43:58.103Z,995.63
2022-09-15T02:44:58.103Z,995.62
2022-09-15T02:45:58.136Z,995.6
2022-09-15T02:46:58.112Z,995.6
2022-09-15T02:47:58.126Z,995.61
2022-09-15T02:48:58.107Z,995.6
2022-09-15T02:49:58.111Z,995.63
2022-09-15T02:50:58.119Z,995.64
2022-09-15T02:51:58.121Z,995.6
2022-09-15T02:52:58.109Z,995.62
2022-09-15T02:53:58.110Z,995.59
2022-09-15T02:54:58.108Z,995.59
2022-09-15T02:55:58.099Z,995.58
2022-09-15T02:56:58.101Z,995.59
2022-09-15T02:57:58.114Z,995.56
2022-09-15T02:58:58.107Z,995.54
2022-09-15T02:59:58.113Z,995.54
2022-09-15T03:00:58.202Z,995.56
2022-09-15T03:01:58.122Z,995.57
2022-09-15T03:02:58.094Z,995.55
2022-09-15T03:03:58.109Z,995.55
2022-09-15T03:04:58.107Z,995.55
2022-09-15T03:05:58.102Z,995.53
2022-09-15T03:06:58.097Z,995.54
2022-09-15T03:07:58.103Z,995.52
2022-09-15T03:08:58.101Z,995.5
2022-09-15T03:09:58.098Z,995.48
2022-09-15T03:10:58.091Z,995.49
2022-09-15T03:11:58.204Z,995.48
2022-09-15T03:12:58.102Z,995.55
2022-09-15T03:13:58.124Z,995.48
2022-09-15T03:14:58.314Z,995.51
2022-09-15T03:15:58.890Z,995.48
2022-09-15T03:16:58.668Z,995.46
2022-09-15T03:17:57.987Z,995.49
2022-09-15T03:18:58.281Z,995.5
2022-09-15T03:19:58.585Z,995.51
2022-09-15T03:20:57.862Z,995.54
2022-09-15T03:21:58.147Z,995.47
2022-09-15T03:22:58.442Z,995.53
2022-09-15T03:23:57.945Z,995.57
2022-09-15T03:24:58.202Z,995.61
2022-09-15T03:25:58.645Z,995.63
2022-09-15T03:26:58.773Z,995.67
2022-09-15T03:27:58.120Z,995.66
2022-09-15T03:28:58.099Z,995.67
2022-09-15T03:29:58.116Z,995.64
2022-09-15T03:30:58.120Z,995.7
2022-09-15T03:31:58.189Z,995.66
2022-09-15T03:32:58.218Z,995.69
2022-09-15T03:33:58.344Z,995.66
2022-09-15T03:35:01.298Z,995.71
2022-09-15T03:35:58.120Z,995.67
2022-09-15T03:36:58.102Z,995.65
2022-09-15T03:37:58.088Z,995.64
2022-09-15T03:38:58.079Z,995.68
2022-09-15T03:39:58.173Z,995.7
2022-09-15T03:40:58.121Z,995.68
2022-09-15T03:41:58.106Z,995.71
2022-09-15T03:42:58.087Z,995.64
2022-09-15T03:43:58.188Z,995.69
2022-09-15T03:44:58.494Z,995.69
2022-09-15T03:45:58.246Z,995.67
2022-09-15T03:46:58.340Z,995.65
2022-09-15T03:47:58.314Z,995.65
2022-09-15T03:48:58.569Z,995.73
2022-09-15T03:49:58.312Z,995.7
2022-09-15T03:50:58.189Z,995.72
2022-09-15T03:51:58.507Z,995.66
2022-09-15T03:53:00.836Z,995.69
2022-09-15T03:53:58.480Z,995.7
2022-09-15T03:54:59.370Z,995.66
2022-09-15T03:55:59.742Z,995.67
2022-09-15T03:56:58.772Z,995.68
2022-09-15T03:57:58.093Z,995.64
2022-09-15T03:58:58.235Z,995.6
2022-09-15T03:59:58.558Z,995.59
2022-09-15T04:00:58.152Z,995.61
2022-09-15T04:01:58.155Z,995.61
2022-09-15T04:02:58.109Z,995.64
2022-09-15T04:03:58.152Z,995.66
2022-09-15T04:04:58.109Z,995.71
2022-09-15T04:05:58.242Z,995.69
2022-09-15T04:06:58.320Z,995.65
2022-09-15T04:07:58.112Z,995.67
2022-09-15T04:08:58.296Z,995.66
2022-09-15T04:09:58.102Z,995.68
2022-09-15T04:10:58.178Z,995.68
2022-09-15T04:11:58.159Z,995.68
2022-09-15T04:12:58.202Z,995.65
2022-09-15T04:13:58.199Z,995.65
2022-09-15T04:14:58.479Z,995.65
2022-09-15T04:15:58.555Z,995.65
2022-09-15T04:16:58.117Z,995.66
2022-09-15T04:17:58.703Z,995.67
2022-09-15T04:18:58.333Z,995.66
2022-09-15T04:19:58.637Z,995.63
2022-09-15T04:20:58.393Z,995.64
2022-09-15T04:21:58.215Z,995.58
2022-09-15T04:22:58.197Z,995.6
2022-09-15T04:23:58.219Z,995.59
2022-09-15T04:24:58.514Z,995.65
2022-09-15T04:25:58.117Z,995.66
2022-09-15T04:26:58.585Z,995.67
2022-09-15T04:27:58.333Z,995.63
2022-09-15T04:29:04.402Z,995.67
2022-09-15T04:29:58.414Z,995.66
2022-09-15T04:30:58.264Z,995.68
2022-09-15T04:31:58.449Z,995.65
2022-09-15T04:32:58.113Z,995.68
2022-09-15T04:33:58.113Z,995.72
2022-09-15T04:34:58.115Z,995.73
2022-09-15T04:35:58.104Z,995.75
2022-09-15T04:36:58.096Z,995.72
2022-09-15T04:37:58.110Z,995.74
2022-09-15T04:38:58.214Z,995.74
2022-09-15T04:39:58.401Z,995.71
2022-09-15T04:40:58.114Z,995.73
2022-09-15T04:41:58.112Z,995.74
2022-09-15T04:42:58.094Z,995.73
2022-09-15T04:43:58.105Z,995.69
2022-09-15T04:44:58.113Z,995.71
2022-09-15T04:45:58.103Z,995.71
2022-09-15T04:46:58.137Z,995.71
2022-09-15T04:47:58.116Z,995.74
2022-09-15T04:48:58.185Z,995.69
2022-09-15T04:49:58.119Z,995.69
2022-09-15T04:50:58.107Z,995.71
2022-09-15T04:51:58.118Z,995.7
2022-09-15T04:52:58.096Z,995.7
2022-09-15T04:53:58.116Z,995.67
2022-09-15T04:54:58.141Z,995.72
2022-09-15T04:55:58.114Z,995.75
2022-09-15T04:56:58.101Z,995.77
2022-09-15T04:57:58.230Z,995.76
2022-09-15T04:59:05.130Z,995.77
2022-09-15T04:59:58.125Z,995.73
2022-09-15T05:00:58.376Z,995.7
2022-09-15T05:01:58.207Z,995.71
2022-09-15T05:02:58.135Z,995.74
2022-09-15T05:03:58.101Z,995.75
2022-09-15T05:04:58.117Z,995.77
2022-09-15T05:05:58.103Z,995.73
2022-09-15T05:06:58.116Z,995.7
2022-09-15T05:07:58.130Z,995.7
2022-09-15T05:08:58.126Z,995.68
2022-09-15T05:09:58.118Z,995.67
2022-09-15T05:10:58.227Z,995.71
2022-09-15T05:11:58.105Z,995.7
2022-09-15T05:12:58.107Z,995.69
2022-09-15T05:13:58.138Z,995.71
2022-09-15T05:14:58.105Z,995.72
2022-09-15T05:15:58.133Z,995.74
2022-09-15T05:16:58.097Z,995.77
2022-09-15T05:17:58.118Z,995.76
2022-09-15T05:18:58.104Z,995.74
2022-09-15T05:19:58.131Z,995.75
2022-09-15T05:20:58.116Z,995.78
2022-09-15T05:21:58.121Z,995.8
2022-09-15T05:22:58.118Z,995.77
2022-09-15T05:23:58.113Z,995.8
2022-09-15T05:24:58.092Z,995.81
2022-09-15T05:25:58.093Z,995.82
2022-09-15T05:26:58.101Z,995.81
2022-09-15T05:27:58.131Z,995.81
2022-09-15T05:28:58.107Z,995.82
2022-09-15T05:30:32.229Z,995.81
2022-09-15T05:30:58.265Z,995.8
2022-09-15T05:31:58.135Z,995.78
2022-09-15T05:32:58.288Z,995.81
2022-09-15T05:33:58.239Z,995.8
2022-09-15T05:34:58.101Z,995.76
2022-09-15T05:35:58.098Z,995.77
2022-09-15T05:36:58.116Z,995.74
2022-09-15T05:37:58.139Z,995.79
2022-09-15T05:38:58.088Z,995.78
2022-09-15T05:39:58.111Z,995.83
2022-09-15T05:40:58.084Z,995.85
2022-09-15T05:41:58.081Z,995.83
2022-09-15T05:42:58.325Z,995.81
2022-09-15T05:43:58.518Z,995.82
2022-09-15T05:44:58.172Z,995.82
2022-09-15T05:45:58.085Z,995.88
2022-09-15T05:46:58.404Z,995.86
2022-09-15T05:47:58.671Z,995.84
2022-09-15T05:48:58.106Z,995.79
2022-09-15T05:49:58.181Z,995.82
2022-09-15T05:50:58.532Z,995.83
2022-09-15T05:51:58.224Z,995.84
2022-09-15T05:52:58.152Z,995.89
2022-09-15T05:53:58.457Z,995.87
2022-09-15T05:55:01.379Z,995.9
2022-09-15T05:55:58.191Z,995.87
2022-09-15T05:56:58.093Z,995.87
2022-09-15T05:57:58.265Z,995.82
2022-09-15T05:58:58.096Z,995.82
2022-09-15T05:59:58.097Z,995.84
2022-09-15T06:00:58.125Z,995.84
2022-09-15T06:01:58.110Z,995.86
2022-09-15T06:02:58.165Z,995.9
2022-09-15T06:03:58.108Z,995.91
2022-09-15T06:04:58.170Z,995.92
2022-09-15T06:05:58.094Z,995.9
2022-09-15T06:06:58.343Z,995.86
2022-09-15T06:07:58.115Z,995.87
2022-09-15T06:09:01.249Z,995.85
2022-09-15T06:09:58.087Z,995.85
2022-09-15T06:10:58.099Z,995.82
2022-09-15T06:11:58.091Z,995.83
2022-09-15T06:12:58.112Z,995.85
2022-09-15T06:13:58.101Z,995.9
2022-09-15T06:14:58.102Z,995.95
2022-09-15T06:15:58.146Z,995.92
2022-09-15T06:16:58.124Z,995.97
2022-09-15T06:17:58.105Z,995.98
2022-09-15T06:18:58.089Z,995.99
2022-09-15T06:19:58.087Z,995.98
2022-09-15T06:20:58.098Z,995.97
2022-09-15T06:21:58.087Z,995.96
2022-09-15T06:22:58.180Z,996
2022-09-15T06:23:58.596Z,995.94
2022-09-15T06:24:58.253Z,995.96
2022-09-15T06:25:58.640Z,995.98
2022-09-15T06:26:58.607Z,995.95
2022-09-15T06:27:57.912Z,995.97
2022-09-15T06:28:58.153Z,995.98
2022-09-15T06:29:58.535Z,995.99
2022-09-15T06:30:57.876Z,995.98
2022-09-15T06:31:58.295Z,996.02
2022-09-15T06:32:58.474Z,996.03
2022-09-15T06:33:57.954Z,996.06
2022-09-15T06:34:58.156Z,996.05
2022-09-15T06:35:58.526Z,996.11
2022-09-15T06:36:58.690Z,996.1
2022-09-15T06:37:58.281Z,996.11
2022-09-15T06:38:58.118Z,996.14
2022-09-15T06:39:58.185Z,996.17
2022-09-15T06:40:58.085Z,996.16
2022-09-15T06:42:05.864Z,996.18
2022-09-15T06:42:58.121Z,996.17
2022-09-15T06:43:58.109Z,996.17
2022-09-15T06:44:58.105Z,996.21
2022-09-15T06:45:58.112Z,996.18
2022-09-15T06:46:58.191Z,996.19
2022-09-15T06:48:23.200Z,996.2
2022-09-15T06:48:58.102Z,996.26
2022-09-15T06:49:58.113Z,996.25
2022-09-15T06:50:58.112Z,996.25
2022-09-15T06:51:58.137Z,996.26
2022-09-15T06:52:58.127Z,996.25
2022-09-15T06:53:58.107Z,996.26
2022-09-15T06:54:58.142Z,996.25
2022-09-15T06:55:58.114Z,996.31
2022-09-15T06:56:58.146Z,996.28
2022-09-15T06:57:58.115Z,996.3
2022-09-15T06:58:58.098Z,996.34
2022-09-15T06:59:58.119Z,996.34
2022-09-15T07:00:58.104Z,996.32
2022-09-15T07:02:02.777Z,996.38
2022-09-15T07:02:58.158Z,996.4
2022-09-15T07:03:58.101Z,996.41
2022-09-15T07:04:58.134Z,996.46
2022-09-15T07:05:58.153Z,996.4
2022-09-15T07:06:58.137Z,996.43
2022-09-15T07:07:58.117Z,996.44
2022-09-15T07:08:58.109Z,996.45
2022-09-15T07:09:58.109Z,996.48
2022-09-15T07:10:58.119Z,996.5
2022-09-15T07:11:58.103Z,996.5
2022-09-15T07:12:58.138Z,996.51
2022-09-15T07:13:58.103Z,996.53
2022-09-15T07:14:58.107Z,996.54
2022-09-15T07:15:58.143Z,996.54
2022-09-15T07:16:58.106Z,996.53
2022-09-15T07:17:58.124Z,996.6
2022-09-15T07:18:58.259Z,996.57
2022-09-15T07:19:58.076Z,996.58
2022-09-15T07:20:58.210Z,996.58
2022-09-15T07:21:58.077Z,996.58
2022-09-15T07:22:58.136Z,996.62
2022-09-15T07:23:58.080Z,996.6
2022-09-15T07:24:58.365Z,996.62
2022-09-15T07:25:58.137Z,996.63
2022-09-15T07:26:58.095Z,996.64
2022-09-15T07:27:58.457Z,996.62
2022-09-15T07:28:59.025Z,996.68
2022-09-15T07:29:58.999Z,996.66
2022-09-15T07:30:58.246Z,996.67
2022-09-15T07:31:58.478Z,996.65
2022-09-15T07:32:58.723Z,996.64
2022-09-15T07:33:58.813Z,996.64
2022-09-15T07:35:00.367Z,996.65
2022-09-15T07:35:59.307Z,996.63
2022-09-15T07:36:59.642Z,996.67
2022-09-15T07:37:58.191Z,996.69
2022-09-15T07:38:58.453Z,996.68
2022-09-15T07:39:58.622Z,996.7
2022-09-15T07:40:58.759Z,996.69
2022-09-15T07:41:58.372Z,996.71
2022-09-15T07:42:58.601Z,996.72
2022-09-15T07:43:58.202Z,996.7
2022-09-15T07:44:58.115Z,996.72
2022-09-15T07:45:58.155Z,996.71
2022-09-15T07:46:58.394Z,996.72
2022-09-15T07:47:58.145Z,996.71
2022-09-15T07:48:58.113Z,996.73
2022-09-15T07:49:58.119Z,996.76
2022-09-15T07:50:58.106Z,996.72
2022-09-15T07:51:58.256Z,996.74
2022-09-15T07:52:58.142Z,996.73
2022-09-15T07:53:58.101Z,996.74
2022-09-15T07:54:58.093Z,996.77
2022-09-15T07:55:58.109Z,996.74
2022-09-15T07:56:58.088Z,996.75
2022-09-15T07:57:58.122Z,996.81
2022-09-15T07:58:58.136Z,996.79
2022-09-15T07:59:58.220Z,996.8
2022-09-15T08:00:58.145Z,996.79
2022-09-15T08:01:58.262Z,996.8
2022-09-15T08:02:58.126Z,996.81
2022-09-15T08:03:58.125Z,996.79
2022-09-15T08:04:58.117Z,996.82
2022-09-15T08:05:58.097Z,996.79
2022-09-15T08:06:58.104Z,996.78
2022-09-15T08:07:58.111Z,996.79
2022-09-15T08:09:02.265Z,996.78
2022-09-15T08:09:58.120Z,996.82
2022-09-15T08:10:58.190Z,996.8
2022-09-15T08:11:58.098Z,996.82
2022-09-15T08:12:58.109Z,996.84
2022-09-15T08:13:58.137Z,996.83
2022-09-15T08:14:58.106Z,996.86
2022-09-15T08:15:58.138Z,996.87
2022-09-15T08:16:58.109Z,996.91
2022-09-15T08:17:58.115Z,996.88
2022-09-15T08:18:58.141Z,996.91
2022-09-15T08:19:58.208Z,996.91
2022-09-15T08:20:58.112Z,996.92
2022-09-15T08:21:58.132Z,996.9
2022-09-15T08:22:58.132Z,996.92
2022-09-15T08:23:58.135Z,996.92
2022-09-15T08:24:58.100Z,996.96
2022-09-15T08:25:58.099Z,996.98
2022-09-15T08:26:58.105Z,996.99
2022-09-15T08:27:58.110Z,997
2022-09-15T08:28:58.135Z,996.98
2022-09-15T08:29:58.112Z,997
2022-09-15T08:30:58.201Z,996.99
2022-09-15T08:31:58.165Z,997
2022-09-15T08:32:58.147Z,997.03
2022-09-15T08:33:58.261Z,997.01
2022-09-15T08:34:58.219Z,997.05
2022-09-15T08:35:58.082Z,997.02
2022-09-15T08:36:58.088Z,997.03
2022-09-15T08:37:58.089Z,997.06
2022-09-15T08:38:58.082Z,997.04
2022-09-15T08:39:58.374Z,997.06
2022-09-15T08:40:58.087Z,997.06
2022-09-15T08:41:58.294Z,997.02
2022-09-15T08:42:58.520Z,997.05
2022-09-15T08:43:58.813Z,997.06
2022-09-15T08:44:58.077Z,997.09
2022-09-15T08:45:58.378Z,997.09
2022-09-15T08:46:58.583Z,997.06
2022-09-15T08:47:58.070Z,997.11
2022-09-15T08:49:04.285Z,997.11
2022-09-15T08:49:58.394Z,997.1
2022-09-15T08:50:58.649Z,997.09
2022-09-15T08:51:58.166Z,997.08
2022-09-15T08:52:58.488Z,997.07
2022-09-15T08:53:58.752Z,997.09
2022-09-15T08:54:58.682Z,997.07
2022-09-15T08:55:58.555Z,997.04
2022-09-15T08:56:58.072Z,997.03
2022-09-15T08:57:58.277Z,997.08
2022-09-15T08:58:58.586Z,997.07
2022-09-15T08:59:58.511Z,997.07
2022-09-15T09:00:58.124Z,997.08
2022-09-15T09:01:58.465Z,997.07
2022-09-15T09:02:58.527Z,997.08
2022-09-15T09:03:58.551Z,997.09
2022-09-15T09:04:58.263Z,997.13
2022-09-15T09:05:58.668Z,997.08
2022-09-15T09:06:58.177Z,997.15
2022-09-15T09:07:58.415Z,997.17
2022-09-15T09:08:58.437Z,997.16
2022-09-15T09:09:58.109Z,997.14
2022-09-15T09:10:58.097Z,997.15
2022-09-15T09:11:58.201Z,997.18
2022-09-15T09:12:58.410Z,997.2
2022-09-15T09:13:58.094Z,997.14
2022-09-15T09:14:58.111Z,997.17
2022-09-15T09:15:58.151Z,997.16
2022-09-15T09:16:58.106Z,997.2
2022-09-15T09:17:58.109Z,997.21
2022-09-15T09:18:58.112Z,997.23
2022-09-15T09:19:58.098Z,997.22
2022-09-15T09:20:58.106Z,997.2
2022-09-15T09:21:58.113Z,997.19
2022-09-15T09:22:58.090Z,997.21
2022-09-15T09:23:58.099Z,997.22
2022-09-15T09:24:58.111Z,997.2
2022-09-15T09:25:58.105Z,997.23
2022-09-15T09:26:58.115Z,997.22
2022-09-15T09:27:58.151Z,997.23
2022-09-15T09:28:58.110Z,997.21
2022-09-15T09:29:58.098Z,997.21
2022-09-15T09:30:58.113Z,997.21
2022-09-15T09:31:58.108Z,997.23
2022-09-15T09:32:58.101Z,997.2
2022-09-15T09:33:58.096Z,997.15
2022-09-15T09:34:58.109Z,997.13
2022-09-15T09:35:58.091Z,997.12
2022-09-15T09:36:58.086Z,997.11
2022-09-15T09:37:58.307Z,997.1
2022-09-15T09:38:58.079Z,997.09
2022-09-15T09:39:58.478Z,997.1
2022-09-15T09:41:05.552Z,997.06
2022-09-15T09:41:58.623Z,997.1
2022-09-15T09:42:57.900Z,997.09
2022-09-15T09:43:58.188Z,997.08
2022-09-15T09:44:58.493Z,997.08
2022-09-15T09:45:57.981Z,997.13
2022-09-15T09:46:58.194Z,997.08
2022-09-15T09:48:04.434Z,997.08
2022-09-15T09:48:57.882Z,997.09
2022-09-15T09:49:58.179Z,997.06
2022-09-15T09:50:58.492Z,997.04
2022-09-15T09:51:58.817Z,997.05
2022-09-15T09:52:58.117Z,997.08
2022-09-15T09:53:58.096Z,997.07
2022-09-15T09:54:58.125Z,997.06
2022-09-15T09:55:58.106Z,997.07
2022-09-15T09:56:58.102Z,997.05
2022-09-15T09:57:58.135Z,997.04
2022-09-15T09:58:58.101Z,997.06
2022-09-15T09:59:58.118Z,997.1
2022-09-15T10:00:58.270Z,997.09
2022-09-15T10:01:58.214Z,997.08
2022-09-15T10:02:58.189Z,997.14
2022-09-15T10:03:58.136Z,997.12
2022-09-15T10:04:58.133Z,997.16
2022-09-15T10:05:58.134Z,997.15
2022-09-15T10:06:58.107Z,997.15
2022-09-15T10:07:58.104Z,997.12
2022-09-15T10:08:58.120Z,997.13
2022-09-15T10:09:58.114Z,997.09
2022-09-15T10:10:58.146Z,997.09
2022-09-15T10:11:58.105Z,997.01
2022-09-15T10:12:58.137Z,997.02
2022-09-15T10:13:58.103Z,997.01
2022-09-15T10:14:58.111Z,997.06
2022-09-15T10:15:58.118Z,997.05
2022-09-15T10:16:58.174Z,997.07
2022-09-15T10:17:58.104Z,997.04
2022-09-15T10:18:58.104Z,997.05
2022-09-15T10:19:58.113Z,997.04
2022-09-15T10:20:58.145Z,997
2022-09-15T10:21:58.112Z,997.08
2022-09-15T10:22:58.095Z,997.05
2022-09-15T10:23:58.098Z,996.99
2022-09-15T10:24:58.114Z,997.05
2022-09-15T10:26:02.153Z,997.03
2022-09-15T10:26:58.109Z,997
2022-09-15T10:27:58.102Z,997.04
2022-09-15T10:28:58.112Z,997.03
2022-09-15T10:29:58.097Z,997
2022-09-15T10:30:58.160Z,997.04
2022-09-15T10:31:58.186Z,997
2022-09-15T10:32:58.143Z,997.02
2022-09-15T10:33:58.099Z,997.01
2022-09-15T10:34:58.145Z,996.99
2022-09-15T10:35:58.267Z,996.98
2022-09-15T10:36:58.218Z,996.99
2022-09-15T10:37:58.564Z,997
2022-09-15T10:38:58.212Z,996.95
2022-09-15T10:39:58.534Z,996.97
2022-09-15T10:40:58.293Z,996.96
2022-09-15T10:41:58.121Z,996.94
2022-09-15T10:42:58.374Z,996.95
2022-09-15T10:43:58.278Z,996.99
2022-09-15T10:44:58.608Z,997
2022-09-15T10:45:58.328Z,996.99
2022-09-15T10:46:58.833Z,996.97
2022-09-15T10:47:59.143Z,997
2022-09-15T10:48:59.143Z,997.01
2022-09-15T10:49:59.321Z,997.04
2022-09-15T10:50:59.670Z,997.03
2022-09-15T10:51:58.245Z,997.08
2022-09-15T10:52:58.213Z,997.09
2022-09-15T10:54:00.715Z,997.07
2022-09-15T10:54:58.502Z,997.06
2022-09-15T10:55:58.218Z,997.1
2022-09-15T10:56:58.505Z,997.06
2022-09-15T10:57:58.105Z,997.07
2022-09-15T10:58:58.130Z,997.11
2022-09-15T10:59:58.197Z,997.04
2022-09-15T11:00:58.129Z,997.11
2022-09-15T11:01:58.164Z,997.04
2022-09-15T11:02:58.108Z,997.07
2022-09-15T11:03:58.098Z,997.06
2022-09-15T11:04:58.095Z,997.05
2022-09-15T11:05:58.101Z,997.03
2022-09-15T11:06:58.123Z,997.04
2022-09-15T11:07:58.119Z,997.01
2022-09-15T11:08:58.106Z,997.06
2022-09-15T11:09:58.106Z,997.02
2022-09-15T11:10:58.108Z,997.11
2022-09-15T11:11:58.095Z,997.14
2022-09-15T11:12:58.105Z,997.12
2022-09-15T11:13:58.097Z,997.08
2022-09-15T11:14:58.101Z,997.11
2022-09-15T11:15:58.137Z,997.13
2022-09-15T11:16:58.101Z,997.15
2022-09-15T11:17:58.140Z,997.15
2022-09-15T11:18:58.125Z,997.12
2022-09-15T11:19:58.094Z,997.07
2022-09-15T11:20:58.117Z,997.12
2022-09-15T11:21:58.120Z,997.12
2022-09-15T11:22:58.124Z,997.19
2022-09-15T11:23:58.109Z,997.12
2022-09-15T11:24:58.128Z,997.15
2022-09-15T11:25:58.117Z,997.17
2022-09-15T11:26:58.130Z,997.14
2022-09-15T11:27:58.108Z,997.13
2022-09-15T11:28:58.113Z,997.1
2022-09-15T11:29:58.101Z,997.1
2022-09-15T11:30:58.117Z,997.11
2022-09-15T11:31:58.225Z,997.15
2022-09-15T11:33:01.119Z,997.13
2022-09-15T11:33:58.131Z,997.13
2022-09-15T11:34:58.098Z,997.12
2022-09-15T11:35:58.099Z,997.11
2022-09-15T11:36:58.108Z,997.16
2022-09-15T11:37:58.099Z,997.14
2022-09-15T11:38:58.109Z,997.18
2022-09-15T11:39:58.200Z,997.21
2022-09-15T11:40:58.091Z,997.22
2022-09-15T11:41:58.092Z,997.21
2022-09-15T11:42:58.133Z,997.23
2022-09-15T11:43:58.077Z,997.2
2022-09-15T11:44:58.096Z,997.23
2022-09-15T11:45:58.094Z,997.24
2022-09-15T11:46:58.201Z,997.22
2022-09-15T11:47:58.165Z,997.23
2022-09-15T11:48:58.165Z,997.21
2022-09-15T11:49:58.456Z,997.19
2022-09-15T11:50:58.081Z,997.22
2022-09-15T11:51:58.519Z,997.19
2022-09-15T11:52:59.606Z,997.22
2022-09-15T11:53:58.295Z,997.27
2022-09-15T11:54:58.237Z,997.25
2022-09-15T11:55:58.608Z,997.24
2022-09-15T11:56:58.199Z,997.24
2022-09-15T11:57:58.079Z,997.27
2022-09-15T11:58:58.359Z,997.24
2022-09-15T11:59:58.093Z,997.22
2022-09-15T12:00:58.776Z,997.23
2022-09-15T12:01:58.170Z,997.24
2022-09-15T12:02:58.873Z,997.21
2022-09-15T12:03:58.238Z,997.19
2022-09-15T12:04:58.099Z,997.16
2022-09-15T12:05:58.334Z,997.2
2022-09-15T12:06:58.109Z,997.21
2022-09-15T12:07:58.244Z,997.22
2022-09-15T12:08:58.138Z,997.22
2022-09-15T12:09:58.404Z,997.2
2022-09-15T12:10:58.174Z,997.19
2022-09-15T12:11:58.461Z,997.19
2022-09-15T12:12:58.312Z,997.16
2022-09-15T12:13:58.630Z,997.12
2022-09-15T12:14:58.358Z,997.11
2022-09-15T12:15:59.836Z,997.06
2022-09-15T12:16:58.383Z,997.14
2022-09-15T12:17:58.562Z,997.14
2022-09-15T12:18:58.788Z,997.1
2022-09-15T12:19:58.155Z,997.12
2022-09-15T12:20:58.405Z,997.14
2022-09-15T12:21:58.292Z,997.1
2022-09-15T12:22:58.502Z,997.12
2022-09-15T12:23:58.794Z,997.11
2022-09-15T12:25:02.622Z,997.13
2022-09-15T12:25:58.103Z,997.11
2022-09-15T12:26:58.300Z,997.13
2022-09-15T12:27:58.127Z,997.1
2022-09-15T12:28:58.097Z,997.12
2022-09-15T12:29:58.116Z,997.1
2022-09-15T12:30:58.181Z,997.13
2022-09-15T12:31:58.106Z,997.1
2022-09-15T12:32:58.114Z,997.19